createdAt,value
2018-03-06T00:01:16.437Z,48.23
2018-03-06T00:03:43.906Z,47.10
2018-03-06T00:06:11.373Z,47.47
2018-03-06T00:08:39.626Z,45.13
2018-03-06T00:11:07.091Z,46.87
2018-03-06T00:13:34.552Z,45.87
2018-03-06T00:16:02.015Z,46.67
2018-03-06T00:18:30.241Z,47.47
2018-03-06T00:20:57.704Z,48.90
2018-03-06T00:23:25.175Z,44.93
2018-03-06T00:25:52.644Z,47.67
2018-03-06T00:28:20.115Z,46.83
2018-03-06T00:30:48.349Z,48.10
2018-03-06T00:33:15.812Z,45.30
2018-03-06T00:35:43.276Z,48.20
2018-03-06T00:38:10.742Z,45.70
2018-03-06T00:40:38.201Z,45.30
2018-03-06T00:43:05.666Z,45.80
2018-03-06T00:45:33.124Z,46.10
2018-03-06T00:48:01.359Z,45.77
2018-03-06T00:50:28.824Z,49.67
2018-03-06T00:52:56.299Z,47.80
2018-03-06T00:55:23.772Z,46.37
2018-03-06T00:57:51.996Z,47.00
2018-03-06T01:00:19.466Z,46.63
2018-03-06T01:02:46.918Z,44.80
2018-03-06T01:05:14.389Z,46.93
2018-03-06T01:07:41.848Z,46.00
2018-03-06T01:10:09.325Z,49.03
2018-03-06T01:12:36.779Z,50.97
2018-03-06T01:15:04.245Z,47.07
2018-03-06T01:17:32.471Z,45.20
2018-03-06T01:19:59.928Z,46.27
2018-03-06T01:22:27.393Z,47.43
2018-03-06T01:24:54.860Z,48.03
2018-03-06T01:27:23.096Z,49.17
2018-03-06T01:29:50.556Z,47.10
2018-03-06T01:32:18.025Z,45.60
2018-03-06T01:34:45.488Z,44.53
2018-03-06T01:37:12.951Z,48.63
2018-03-06T01:39:40.413Z,45.93
2018-03-06T01:42:07.884Z,46.00
2018-03-06T01:44:35.344Z,48.73
2018-03-06T01:47:02.809Z,47.70
2018-03-06T01:49:30.305Z,46.70
2018-03-06T01:51:58.499Z,47.70
2018-03-06T01:54:25.968Z,47.13
2018-03-06T01:56:53.429Z,47.60
2018-03-06T01:59:20.883Z,47.90
2018-03-06T02:01:48.347Z,50.03
2018-03-06T02:04:15.821Z,47.47
2018-03-06T02:06:44.045Z,46.23
2018-03-06T02:09:11.508Z,46.37
2018-03-06T02:11:38.972Z,46.43
2018-03-06T02:14:06.431Z,46.63
2018-03-06T02:16:33.888Z,46.33
2018-03-06T02:19:01.362Z,44.43
2018-03-06T02:21:28.820Z,45.70
2018-03-06T02:23:56.283Z,46.63
2018-03-06T02:26:23.740Z,47.33
2018-03-06T02:28:51.202Z,48.03
2018-03-06T02:31:18.661Z,47.50
2018-03-06T02:33:46.116Z,46.10
2018-03-06T02:36:13.580Z,47.00
2018-03-06T02:38:41.822Z,45.97
2018-03-06T02:41:09.285Z,46.77
2018-03-06T02:43:37.136Z,49.33
2018-03-06T02:46:10.361Z,45.90
2018-03-06T02:48:37.820Z,45.33
2018-03-06T02:51:05.276Z,46.13
2018-03-06T02:53:32.743Z,49.00
2018-03-06T02:56:00.971Z,48.73
2018-03-06T02:58:28.436Z,47.57
2018-03-06T03:00:55.900Z,46.57
2018-03-06T03:03:23.368Z,46.87
2018-03-06T03:05:50.839Z,47.67
2018-03-06T03:08:19.067Z,48.23
2018-03-06T03:10:46.536Z,46.50
2018-03-06T03:13:13.996Z,47.90
2018-03-06T03:15:41.456Z,48.77
2018-03-06T03:18:08.924Z,49.80
2018-03-06T03:20:36.391Z,49.20
2018-03-06T03:23:03.854Z,46.73
2018-03-06T03:25:32.110Z,48.97
2018-03-06T03:27:59.571Z,49.17
2018-03-06T03:30:27.032Z,49.77
2018-03-06T03:32:54.495Z,47.20
2018-03-06T03:35:22.745Z,47.93
2018-03-06T03:37:50.195Z,46.40
2018-03-06T03:40:17.648Z,46.20
2018-03-06T03:42:45.113Z,45.47
2018-03-06T03:45:12.579Z,44.90
2018-03-06T03:47:40.045Z,43.80
2018-03-06T03:50:07.513Z,46.07
2018-03-06T03:52:35.741Z,44.80
2018-03-06T03:55:03.196Z,45.90
2018-03-06T03:57:30.664Z,45.00
2018-03-06T03:59:58.120Z,46.40
2018-03-06T04:02:25.595Z,44.17
2018-03-06T04:04:53.066Z,49.50
2018-03-06T04:07:21.299Z,47.00
2018-03-06T04:09:48.756Z,47.87
2018-03-06T04:12:16.232Z,48.63
2018-03-06T04:14:43.696Z,46.57
2018-03-06T04:17:11.160Z,44.47
2018-03-06T04:19:38.620Z,48.13
2018-03-06T04:22:06.083Z,47.87
2018-03-06T04:24:34.308Z,48.90
2018-03-06T04:27:01.824Z,45.67
2018-03-06T04:29:29.292Z,46.87
2018-03-06T04:31:56.776Z,45.53
2018-03-06T04:34:24.237Z,45.47
2018-03-06T04:36:51.706Z,46.07
2018-03-06T04:39:19.159Z,47.53
2018-03-06T04:41:46.616Z,47.33
2018-03-06T04:44:14.076Z,47.43
2018-03-06T04:46:41.540Z,45.57
2018-03-06T04:49:09.027Z,47.67
2018-03-06T04:51:37.280Z,45.07
2018-03-06T04:54:04.732Z,43.97
2018-03-06T04:56:32.201Z,45.90
2018-03-06T04:59:00.429Z,45.43
2018-03-06T05:01:27.898Z,43.97
2018-03-06T05:03:55.439Z,46.93
2018-03-06T05:06:23.000Z,46.97
2018-03-06T05:08:50.467Z,45.00
2018-03-06T05:11:17.948Z,47.07
2018-03-06T05:13:45.413Z,42.97
2018-03-06T05:16:12.884Z,48.13
2018-03-06T05:18:41.112Z,49.07
2018-03-06T05:21:09.348Z,51.27
2018-03-06T05:23:37.205Z,49.17
2018-03-06T05:26:05.432Z,49.27
2018-03-06T05:28:32.896Z,46.90
2018-03-06T05:31:00.359Z,45.90
2018-03-06T05:33:27.826Z,46.63
2018-03-06T05:35:55.291Z,47.57
2018-03-06T05:38:22.762Z,47.00
2018-03-06T05:40:50.986Z,47.90
2018-03-06T05:43:18.448Z,49.53
2018-03-06T05:45:46.677Z,46.93
2018-03-06T05:48:14.139Z,48.50
2018-03-06T05:50:41.613Z,48.37
2018-03-06T05:53:09.070Z,45.50
2018-03-06T05:55:36.532Z,45.40
2018-03-06T05:58:03.994Z,48.57
2018-03-06T06:00:31.452Z,45.87
2018-03-06T06:02:58.909Z,45.27
2018-03-06T06:05:26.385Z,46.70
2018-03-06T06:07:53.853Z,49.60
2018-03-06T06:10:21.335Z,51.37
2018-03-06T06:12:49.600Z,48.37
2018-03-06T06:15:17.840Z,48.40
2018-03-06T06:17:45.314Z,47.20
2018-03-06T06:20:12.783Z,47.10
2018-03-06T06:22:40.237Z,47.03
2018-03-06T06:25:07.696Z,46.43
2018-03-06T06:27:35.156Z,46.27
2018-03-06T06:30:02.618Z,48.40
2018-03-06T06:32:30.889Z,48.13
2018-03-06T06:34:58.300Z,49.43
2018-03-06T06:37:25.768Z,50.20
2018-03-06T06:39:53.234Z,48.97
2018-03-06T06:42:20.694Z,48.70
2018-03-06T06:44:48.152Z,47.37
2018-03-06T06:47:15.612Z,50.23
2018-03-06T06:49:43.072Z,49.87
2018-03-06T06:52:10.532Z,49.93
2018-03-06T06:54:38.000Z,48.70
2018-03-06T06:57:06.225Z,48.33
2018-03-06T06:59:33.684Z,49.37
2018-03-06T07:02:01.133Z,48.60
2018-03-06T07:04:28.593Z,49.27
2018-03-06T07:06:56.048Z,49.17
2018-03-06T07:09:23.508Z,50.33
2018-03-06T07:11:50.973Z,52.90
2018-03-06T07:14:18.437Z,54.83
2018-03-06T07:16:45.892Z,47.17
2018-03-06T07:19:13.370Z,46.33
2018-03-06T07:21:40.823Z,45.73
2018-03-06T07:24:08.279Z,46.13
2018-03-06T07:26:35.736Z,43.00
2018-03-06T07:29:03.184Z,45.80
2018-03-06T07:31:30.646Z,45.27
2018-03-06T07:33:58.100Z,47.97
2018-03-06T07:36:25.553Z,47.43
2018-03-06T07:38:53.010Z,46.77
2018-03-06T07:41:20.466Z,45.53
2018-03-06T07:43:47.915Z,46.23
2018-03-06T07:46:15.367Z,47.13
2018-03-06T07:48:42.820Z,47.70
2018-03-06T07:51:10.311Z,49.93
2018-03-06T07:53:38.139Z,51.00
2018-03-06T07:56:05.607Z,47.33
2018-03-06T07:58:33.050Z,48.80
2018-03-06T08:01:00.497Z,47.40
2018-03-06T08:03:27.949Z,50.13
2018-03-06T08:05:55.400Z,48.50
2018-03-06T08:08:22.844Z,44.83
2018-03-06T08:10:50.300Z,46.07
2018-03-06T08:13:17.762Z,46.33
2018-03-06T08:15:45.229Z,46.07
2018-03-06T08:18:12.757Z,46.10
2018-03-06T08:20:40.972Z,44.13
2018-03-06T08:23:08.411Z,44.57
2018-03-06T08:25:35.864Z,46.73
2018-03-06T08:28:03.312Z,43.93
2018-03-06T08:30:30.763Z,44.33
2018-03-06T08:32:58.207Z,43.33
2018-03-06T08:35:26.421Z,42.10
2018-03-06T08:37:53.875Z,41.40
2018-03-06T08:40:21.325Z,44.27
2018-03-06T08:42:48.775Z,41.90
2018-03-06T08:45:16.232Z,42.67
2018-03-06T08:47:43.676Z,44.67
2018-03-06T08:50:11.120Z,44.37
2018-03-06T08:52:39.332Z,44.83
2018-03-06T08:55:06.784Z,46.77
2018-03-06T08:57:34.231Z,50.07
2018-03-06T09:00:01.693Z,44.37
2018-03-06T09:02:29.133Z,47.00
2018-03-06T09:04:56.576Z,45.03
2018-03-06T09:07:24.788Z,45.60
2018-03-06T09:09:52.246Z,46.43
2018-03-06T09:12:19.687Z,46.80
2018-03-06T09:14:47.136Z,41.80
2018-03-06T09:17:14.613Z,42.63
2018-03-06T09:19:42.061Z,43.27
2018-03-06T09:22:09.505Z,42.40
2018-03-06T09:24:36.952Z,41.27
2018-03-06T09:27:04.447Z,41.37
2018-03-06T09:29:32.607Z,43.60
2018-03-06T09:32:00.064Z,40.53
2018-03-06T09:34:27.514Z,41.67
2018-03-06T09:36:54.964Z,39.90
2018-03-06T09:39:22.403Z,42.20
2018-03-06T09:41:49.852Z,39.83
2018-03-06T09:44:18.072Z,40.87
2018-03-06T09:46:45.516Z,38.43
2018-03-06T09:49:12.963Z,39.30
2018-03-06T09:51:40.413Z,39.00
2018-03-06T09:54:07.882Z,38.37
2018-03-06T09:56:35.330Z,41.40
2018-03-06T09:59:02.771Z,41.17
2018-03-06T10:01:30.219Z,42.90
2018-03-06T10:03:58.432Z,41.50
2018-03-06T10:06:25.889Z,39.37
2018-03-06T10:08:53.341Z,42.37
2018-03-06T10:11:20.788Z,41.23
2018-03-06T10:13:48.236Z,40.83
2018-03-06T10:16:15.692Z,42.73
2018-03-06T10:18:43.136Z,43.10
2018-03-06T10:21:11.372Z,41.27
2018-03-06T10:23:38.820Z,45.83
2018-03-06T10:26:06.286Z,41.90
2018-03-06T10:28:33.733Z,40.07
2018-03-06T10:31:01.188Z,41.10
2018-03-06T10:33:28.637Z,41.20
2018-03-06T10:35:56.094Z,38.70
2018-03-06T10:38:23.537Z,40.37
2018-03-06T10:40:50.993Z,40.17
2018-03-06T10:43:18.449Z,39.17
2018-03-06T10:45:45.908Z,38.03
2018-03-06T10:48:13.359Z,37.47
2018-03-06T10:50:40.827Z,38.77
2018-03-06T10:53:08.277Z,39.93
2018-03-06T10:55:35.729Z,39.07
2018-03-06T10:58:03.177Z,48.10
2018-03-06T11:00:36.377Z,47.57
2018-03-06T11:03:03.825Z,38.93
2018-03-06T11:05:31.264Z,38.00
2018-03-06T11:07:58.724Z,38.70
2018-03-06T11:10:26.173Z,41.20
2018-03-06T11:12:53.628Z,50.43
2018-03-06T11:15:21.846Z,40.03
2018-03-06T11:17:49.300Z,42.10
2018-03-06T11:20:16.748Z,40.07
2018-03-06T11:22:44.217Z,37.27
2018-03-06T11:25:11.667Z,37.93
2018-03-06T11:27:39.107Z,37.00
2018-03-06T11:30:06.556Z,34.90
2018-03-06T11:32:34.004Z,38.23
2018-03-06T11:35:01.453Z,37.00
2018-03-06T11:37:29.671Z,39.53
2018-03-06T11:39:57.124Z,37.27
2018-03-06T11:42:24.589Z,37.10
2018-03-06T11:44:52.025Z,38.37
2018-03-06T11:47:19.484Z,38.73
2018-03-06T11:49:46.962Z,37.80
2018-03-06T11:52:14.405Z,38.97
2018-03-06T11:54:41.847Z,40.20
2018-03-06T11:57:09.313Z,38.83
2018-03-06T11:59:36.760Z,40.43
2018-03-06T12:02:04.260Z,40.80
2018-03-06T12:04:31.669Z,40.20
2018-03-06T12:06:59.135Z,38.27
2018-03-06T12:09:26.575Z,40.63
2018-03-06T12:11:54.037Z,39.17
2018-03-06T12:14:21.488Z,37.83
2018-03-06T12:16:48.941Z,41.50
2018-03-06T12:19:16.404Z,40.50
2018-03-06T12:21:43.860Z,40.70
2018-03-06T12:24:11.306Z,41.20
2018-03-06T12:26:38.757Z,39.50
2018-03-06T12:29:06.208Z,41.20
2018-03-06T12:31:34.424Z,39.60
2018-03-06T12:34:01.931Z,39.23
2018-03-06T12:36:29.359Z,38.87
2018-03-06T12:38:56.808Z,40.43
2018-03-06T12:41:24.249Z,40.20
2018-03-06T12:43:51.703Z,38.57
2018-03-06T12:46:19.148Z,41.37
2018-03-06T12:48:46.600Z,40.57
2018-03-06T12:51:14.051Z,40.40
2018-03-06T12:53:41.503Z,43.87
2018-03-06T12:56:08.944Z,39.90
2018-03-06T12:58:36.391Z,40.93
2018-03-06T13:01:04.626Z,40.13
2018-03-06T13:03:32.067Z,40.87
2018-03-06T13:05:59.516Z,39.90
2018-03-06T13:08:26.968Z,43.13
2018-03-06T13:10:54.422Z,40.23
2018-03-06T13:13:21.887Z,40.40
2018-03-06T13:15:49.369Z,40.13
2018-03-06T13:18:16.816Z,41.23
2018-03-06T13:20:44.264Z,41.23
2018-03-06T13:23:11.712Z,41.07
2018-03-06T13:25:39.170Z,40.37
2018-03-06T13:28:06.608Z,43.37
2018-03-06T13:30:34.060Z,41.27
2018-03-06T13:33:01.507Z,41.57
2018-03-06T13:35:29.733Z,42.27
2018-03-06T13:37:57.946Z,42.20
2018-03-06T13:40:26.163Z,42.33
2018-03-06T13:42:53.611Z,43.43
2018-03-06T13:45:21.065Z,45.10
2018-03-06T13:47:48.517Z,44.60
2018-03-06T13:50:15.964Z,41.80
2018-03-06T13:52:43.414Z,42.10
2018-03-06T13:55:10.856Z,44.20
2018-03-06T13:57:39.083Z,42.93
2018-03-06T14:00:06.532Z,42.13
2018-03-06T14:02:33.976Z,41.60
2018-03-06T14:05:01.424Z,42.70
2018-03-06T14:07:28.879Z,42.90
2018-03-06T14:09:56.327Z,44.23
2018-03-06T14:12:23.781Z,46.00
2018-03-06T14:14:51.229Z,44.83
2018-03-06T14:17:19.465Z,45.23
2018-03-06T14:19:46.908Z,43.97
2018-03-06T14:22:14.365Z,50.60
2018-03-06T14:24:41.819Z,83.70
2018-03-06T14:27:09.270Z,55.83
2018-03-06T14:29:36.712Z,46.67
2018-03-06T14:32:04.163Z,46.27
2018-03-06T14:34:31.615Z,47.43
2018-03-06T14:36:59.060Z,46.00
2018-03-06T14:39:26.946Z,45.43
2018-03-06T14:41:54.397Z,48.57
2018-03-06T14:44:21.836Z,48.50
2018-03-06T14:46:49.284Z,46.40
2018-03-06T14:49:17.505Z,46.07
2018-03-06T14:51:44.948Z,49.23
2018-03-06T14:54:12.393Z,48.70
2018-03-06T14:56:39.879Z,83.27
2018-03-06T14:59:07.336Z,56.70
2018-03-06T15:01:34.792Z,56.07
2018-03-06T15:04:02.245Z,52.60
2018-03-06T15:06:29.718Z,49.53
2018-03-06T15:08:57.173Z,47.03
2018-03-06T15:11:24.620Z,46.53
2018-03-06T15:13:52.072Z,46.07
2018-03-06T15:16:19.525Z,49.27
2018-03-06T15:18:46.965Z,49.27
2018-03-06T15:21:14.515Z,49.73
2018-03-06T15:23:41.962Z,46.63
2018-03-06T15:26:09.410Z,51.17
2018-03-06T15:28:37.624Z,51.43
2018-03-06T15:31:05.128Z,47.07
2018-03-06T15:33:32.537Z,47.23
2018-03-06T15:35:59.984Z,47.60
2018-03-06T15:38:27.441Z,51.30
2018-03-06T15:40:54.917Z,50.60
2018-03-06T15:43:22.512Z,53.07
2018-03-06T15:45:49.994Z,48.27
2018-03-06T15:48:17.485Z,47.23
2018-03-06T15:50:45.671Z,49.27
2018-03-06T15:53:13.125Z,53.10
2018-03-06T15:55:40.585Z,52.17
2018-03-06T15:58:08.801Z,49.73
2018-03-06T16:00:36.348Z,49.80
2018-03-06T16:03:04.566Z,50.90
2018-03-06T16:05:32.008Z,48.60
2018-03-06T16:07:59.458Z,49.17
2018-03-06T16:10:26.909Z,49.57
2018-03-06T16:12:54.395Z,49.80
2018-03-06T16:15:21.826Z,53.73
2018-03-06T16:17:49.264Z,48.97
2018-03-06T16:20:17.494Z,50.67
2018-03-06T16:22:44.945Z,53.83
2018-03-06T16:25:13.163Z,54.13
2018-03-06T16:27:41.385Z,58.17
2018-03-06T16:30:08.832Z,54.10
2018-03-06T16:32:36.288Z,59.40
2018-03-06T16:35:03.741Z,60.73
2018-03-06T16:37:31.200Z,56.97
2018-03-06T16:39:58.661Z,54.10
2018-03-06T16:42:26.113Z,56.07
2018-03-06T16:44:53.565Z,52.60
2018-03-06T16:47:21.016Z,52.20
2018-03-06T16:49:48.484Z,55.40
2018-03-06T16:52:15.942Z,57.30
2018-03-06T16:54:43.396Z,56.30
2018-03-06T16:57:10.861Z,68.50
2018-03-06T16:59:38.309Z,57.57
2018-03-06T17:02:05.781Z,65.87
2018-03-06T17:04:33.231Z,58.43
2018-03-06T17:07:00.732Z,54.87
2018-03-06T17:09:28.988Z,58.23
2018-03-06T17:11:56.458Z,58.47
2018-03-06T17:14:23.907Z,59.53
2018-03-06T17:16:51.390Z,54.53
2018-03-06T17:19:19.614Z,56.50
2018-03-06T17:21:47.077Z,54.30
2018-03-06T17:24:15.293Z,57.37
2018-03-06T17:26:43.513Z,51.33
2018-03-06T17:29:10.972Z,57.30
2018-03-06T17:31:39.250Z,52.20
2018-03-06T17:34:06.704Z,58.33
2018-03-06T17:36:34.162Z,54.50
2018-03-06T17:39:01.631Z,54.03
2018-03-06T17:41:29.081Z,52.93
2018-03-06T17:43:56.545Z,57.27
2018-03-06T17:46:23.999Z,56.83
2018-03-06T17:48:52.228Z,54.80
2018-03-06T17:51:19.692Z,53.47
2018-03-06T17:53:47.164Z,56.23
2018-03-06T17:56:14.629Z,54.17
2018-03-06T17:58:42.094Z,61.50
2018-03-06T18:01:09.558Z,57.87
2018-03-06T18:03:37.025Z,54.13
2018-03-06T18:06:04.476Z,59.53
2018-03-06T18:08:31.972Z,54.30
2018-03-06T18:10:59.429Z,70.47
2018-03-06T18:13:26.884Z,61.10
2018-03-06T18:15:55.113Z,58.17
2018-03-06T18:18:22.573Z,60.43
2018-03-06T18:20:50.047Z,59.87
2018-03-06T18:23:17.500Z,56.80
2018-03-06T18:25:44.959Z,57.90
2018-03-06T18:28:12.417Z,58.43
2018-03-06T18:30:39.868Z,57.20
2018-03-06T18:33:07.390Z,55.53
2018-03-06T18:35:34.859Z,54.40
2018-03-06T18:38:02.317Z,55.17
2018-03-06T18:40:29.773Z,61.90
2018-03-06T18:42:57.226Z,59.03
2018-03-06T18:45:25.439Z,60.97
2018-03-06T18:47:53.659Z,59.40
2018-03-06T18:50:33.146Z,60.17
2018-03-06T18:53:00.591Z,59.47
2018-03-06T18:55:28.050Z,59.93
2018-03-06T18:57:55.555Z,59.43
2018-03-06T19:07:07.156Z,59.63
2018-03-06T19:09:34.621Z,57.50
2018-03-06T19:12:02.948Z,54.60
2018-03-06T19:14:31.182Z,59.47
2018-03-06T19:16:59.412Z,60.93
2018-03-06T19:19:26.889Z,58.77
2018-03-06T19:21:55.192Z,59.43
2018-03-06T19:24:23.492Z,66.27
2018-03-06T19:26:51.814Z,60.97
2018-03-06T19:29:20.070Z,76.97
2018-03-06T19:31:48.125Z,64.53
2018-03-06T19:34:16.507Z,73.57
2018-03-06T19:36:44.117Z,60.13
2018-03-06T19:39:11.645Z,59.53
2018-03-06T19:41:40.036Z,58.37
2018-03-06T19:44:07.743Z,64.70
2018-03-06T19:46:35.238Z,68.00
2018-03-06T19:49:02.867Z,66.23
2018-03-06T19:51:30.378Z,59.37
2018-03-06T19:53:57.874Z,63.47
2018-03-06T19:56:25.350Z,62.47
2018-03-06T19:58:52.868Z,61.47
2018-03-06T20:01:20.379Z,58.80
2018-03-06T20:03:48.157Z,56.80
2018-03-06T20:06:15.890Z,56.30
2018-03-06T20:08:43.376Z,54.73
2018-03-06T20:11:11.617Z,55.33
2018-03-06T20:13:39.863Z,56.07
2018-03-06T20:16:08.130Z,56.30
2018-03-06T20:18:35.633Z,56.07
2018-03-06T20:21:03.865Z,57.37
2018-03-06T20:23:32.156Z,54.70
2018-03-06T20:25:59.641Z,61.33
2018-03-06T20:28:27.205Z,57.63
2018-03-06T20:31:00.498Z,56.57
2018-03-06T20:33:28.993Z,59.27
2018-03-06T20:35:57.268Z,58.10
2018-03-06T20:38:30.447Z,56.17
2018-03-06T20:40:57.983Z,55.80
2018-03-06T20:43:25.510Z,57.57
2018-03-06T20:45:59.349Z,56.63
2018-03-06T20:48:27.618Z,55.53
2018-03-06T20:50:55.085Z,58.53
2018-03-06T20:53:28.258Z,61.90
2018-03-06T20:55:56.495Z,57.40
2018-03-06T20:58:23.976Z,58.13
2018-03-06T21:00:51.552Z,61.30
2018-03-06T21:03:19.041Z,58.53
2018-03-06T21:05:46.611Z,56.10
2018-03-06T21:08:14.081Z,56.67
2018-03-06T21:10:41.565Z,57.27
2018-03-06T21:13:09.038Z,55.93
2018-03-06T21:15:36.674Z,55.77
2018-03-06T21:18:04.160Z,55.27
2018-03-06T21:20:31.645Z,59.17
2018-03-06T21:22:59.112Z,61.63
2018-03-06T21:25:26.633Z,61.60
2018-03-06T21:27:54.094Z,58.23
2018-03-06T21:30:21.565Z,58.23
2018-03-06T21:32:49.048Z,64.23
2018-03-06T21:35:16.521Z,73.10
2018-03-06T21:37:44.782Z,75.43
2018-03-06T21:40:12.255Z,66.87
2018-03-06T21:42:39.740Z,62.50
2018-03-06T21:45:07.253Z,62.23
2018-03-06T21:47:34.754Z,63.30
2018-03-06T21:50:02.352Z,58.97
2018-03-06T21:52:29.823Z,58.07
2018-03-06T21:54:57.413Z,63.43
2018-03-06T21:57:24.916Z,61.30
2018-03-06T21:59:52.502Z,56.17
2018-03-06T22:02:20.069Z,59.60
2018-03-06T22:04:47.543Z,60.93
2018-03-06T22:07:15.017Z,60.07
2018-03-06T22:09:42.566Z,63.27
2018-03-06T22:12:10.796Z,62.20
2018-03-06T22:14:38.262Z,61.10
2018-03-06T22:17:05.731Z,59.07
2018-03-06T22:19:34.000Z,59.07
2018-03-06T22:22:01.594Z,63.03
2018-03-06T22:24:29.071Z,64.63
2018-03-06T22:26:56.552Z,64.33
2018-03-06T22:29:24.063Z,65.47
2018-03-06T22:31:51.539Z,65.90
2018-03-06T22:34:19.040Z,70.30
2018-03-06T22:36:46.512Z,61.73
2018-03-06T22:39:13.973Z,68.20
2018-03-06T22:41:41.452Z,65.87
2018-03-06T22:44:08.938Z,62.97
2018-03-06T22:46:36.443Z,61.87
2018-03-06T22:49:03.924Z,63.00
2018-03-06T22:51:31.419Z,65.70
2018-03-06T22:53:58.912Z,69.07
2018-03-06T22:56:27.196Z,68.67
2018-03-06T22:58:54.669Z,63.17
2018-03-06T23:01:22.141Z,65.47
2018-03-06T23:03:49.666Z,65.77
2018-03-06T23:06:17.633Z,61.03
2018-03-06T23:08:45.167Z,59.73
2018-03-06T23:11:12.641Z,62.07
2018-03-06T23:13:40.104Z,62.20
2018-03-06T23:16:07.578Z,60.43
2018-03-06T23:18:35.040Z,59.63
2018-03-06T23:21:02.512Z,61.37
2018-03-06T23:23:29.980Z,60.07
2018-03-06T23:25:57.454Z,62.73
2018-03-06T23:28:24.934Z,56.13
2018-03-06T23:30:52.401Z,56.10
2018-03-06T23:33:19.908Z,58.60
2018-03-06T23:35:47.390Z,53.83
2018-03-06T23:38:14.857Z,55.23
2018-03-06T23:40:42.332Z,54.73
2018-03-06T23:43:09.808Z,54.77
2018-03-06T23:45:37.322Z,55.60
2018-03-06T23:48:04.822Z,52.83
2018-03-06T23:50:32.312Z,53.83
2018-03-06T23:52:59.890Z,52.60
2018-03-06T23:55:27.355Z,53.07
2018-03-06T23:57:54.863Z,53.63
